Time;durP1;ratioP1;P1;durP2;ratioP2;P2;SDS_P1;SDS_P2;PMS_P1;PMS_P2;Temp;Humidity;BMP_temperature;BMP_pressure;BME280_temperature;BME280_humidity;BME280_pressure;Samples;Min_cycle;Max_cycle;Signal;HPM_P1;HPM_P2
2023/01/24 00:02:02;;;;;;;21.35;16.63;;;3.70;99.90;;;;;;5053649;28;20480;-49
2023/01/24 00:04:29;;;;;;;25.50;18.17;;;3.70;99.90;;;;;;5054006;28;20045;-51
2023/01/24 00:06:56;;;;;;;24.38;18.17;;;3.70;99.90;;;;;;5053477;28;20037;-51
2023/01/24 00:09:22;;;;;;;25.30;18.20;;;3.70;99.90;;;;;;5053703;28;20435;-48
2023/01/24 00:11:49;;;;;;;22.58;17.35;;;3.60;99.90;;;;;;5053493;28;20063;-49
2023/01/24 00:14:16;;;;;;;22.20;16.38;;;3.60;99.90;;;;;;5052593;28;20065;-48
2023/01/24 00:16:42;;;;;;;20.90;15.98;;;3.70;99.90;;;;;;5053633;28;20107;-46
2023/01/24 00:19:09;;;;;;;22.05;17.00;;;3.70;99.90;;;;;;5053697;28;20055;-50
2023/01/24 00:21:36;;;;;;;24.45;18.35;;;3.70;99.90;;;;;;5053422;28;20048;-51
2023/01/24 00:24:03;;;;;;;27.73;18.90;;;3.70;99.90;;;;;;5053596;28;20037;-55
2023/01/24 00:26:30;;;;;;;26.45;18.92;;;3.70;99.90;;;;;;5053495;28;20041;-54
2023/01/24 00:28:58;;;;;;;26.90;18.40;;;3.70;99.90;;;;;;5052405;28;20116;-50
2023/01/24 00:31:25;;;;;;;24.13;17.20;;;3.70;99.90;;;;;;5053494;28;20048;-53
2023/01/24 00:33:53;;;;;;;24.98;17.58;;;3.70;99.90;;;;;;5051821;28;20124;-50
2023/01/24 00:36:20;;;;;;;25.15;17.15;;;3.70;99.90;;;;;;5053227;28;20045;-50
2023/01/24 00:38:46;;;;;;;25.45;16.95;;;3.70;99.90;;;;;;5053693;28;20099;-49
2023/01/24 00:41:13;;;;;;;21.83;16.48;;;3.70;99.90;;;;;;5035668;28;20044;-51
2023/01/24 00:43:40;;;;;;;23.48;16.17;;;3.70;99.90;;;;;;5053715;28;20037;-48
2023/01/24 00:46:07;;;;;;;20.25;15.63;;;3.70;99.90;;;;;;5052858;28;20549;-46
2023/01/24 00:48:34;;;;;;;22.27;15.93;;;3.70;99.90;;;;;;5051666;28;20063;-47
2023/01/24 00:51:01;;;;;;;21.00;16.25;;;3.70;99.90;;;;;;5053068;28;20045;-44
2023/01/24 00:53:28;;;;;;;23.35;16.17;;;3.70;99.90;;;;;;5051473;28;20067;-50
2023/01/24 00:55:54;;;;;;;24.60;16.85;;;3.70;99.90;;;;;;5053101;28;20045;-50
2023/01/24 00:58:21;;;;;;;23.27;16.45;;;3.70;99.90;;;;;;5053298;28;20408;-47
2023/01/24 01:00:48;;;;;;;22.27;15.95;;;3.70;99.90;;;;;;5052985;28;20044;-47
2023/01/24 01:03:15;;;;;;;24.55;16.58;;;3.70;99.90;;;;;;5051517;28;20045;-45
2023/01/24 01:05:42;;;;;;;21.38;17.33;;;3.70;99.90;;;;;;5053093;28;20037;-48
2023/01/24 01:08:09;;;;;;;22.45;16.05;;;3.70;99.90;;;;;;5052167;28;20215;-47
2023/01/24 01:10:35;;;;;;;23.05;16.15;;;3.70;99.90;;;;;;5053538;28;20041;-48
2023/01/24 01:13:02;;;;;;;19.90;15.90;;;3.70;99.90;;;;;;5051551;28;20049;-49
2023/01/24 01:15:29;;;;;;;25.27;16.95;;;3.70;99.90;;;;;;5051472;28;20060;-46
2023/01/24 01:17:55;;;;;;;21.00;16.33;;;3.80;99.90;;;;;;5053055;28;20045;-54
2023/01/24 01:20:23;;;;;;;20.98;16.27;;;3.80;99.90;;;;;;5052751;28;20049;-46
2023/01/24 01:22:50;;;;;;;21.10;16.33;;;3.70;99.90;;;;;;5051433;28;20171;-47
2023/01/24 01:25:16;;;;;;;20.00;16.10;;;3.80;99.90;;;;;;5053412;28;20037;-49
2023/01/24 01:27:43;;;;;;;23.23;16.80;;;3.80;99.90;;;;;;5054814;28;20488;-49
2023/01/24 01:30:10;;;;;;;23.05;15.95;;;3.80;99.90;;;;;;5055710;28;20041;-48
2023/01/24 01:32:37;;;;;;;21.08;15.88;;;3.80;99.90;;;;;;5056755;28;20041;-51
2023/01/24 01:35:04;;;;;;;19.52;15.45;;;3.80;99.90;;;;;;5055299;28;20450;-53
2023/01/24 01:37:31;;;;;;;21.05;15.10;;;3.80;99.90;;;;;;5056206;28;20213;-50
2023/01/24 01:39:57;;;;;;;22.75;16.08;;;3.70;99.90;;;;;;5056423;28;20512;-47
2023/01/24 01:42:24;;;;;;;19.58;15.32;;;3.80;99.90;;;;;;5056589;28;20106;-47
2023/01/24 01:44:53;;;;;;;19.38;14.90;;;3.80;99.90;;;;;;5055472;28;20048;-50
2023/01/24 01:47:20;;;;;;;20.33;15.45;;;3.80;99.90;;;;;;5056483;28;20045;-49
2023/01/24 01:49:46;;;;;;;19.45;15.27;;;3.80;99.90;;;;;;5055222;28;20480;-48
2023/01/24 01:52:13;;;;;;;21.83;15.25;;;3.80;99.90;;;;;;5056659;28;20044;-48
2023/01/24 01:54:40;;;;;;;19.63;15.38;;;3.80;99.90;;;;;;5054550;28;20067;-49
2023/01/24 01:57:06;;;;;;;20.63;15.65;;;3.80;99.90;;;;;;5054894;28;20085;-46
2023/01/24 01:59:33;;;;;;;22.58;15.35;;;3.80;99.90;;;;;;5054848;28;20087;-47
2023/01/24 02:02:01;;;;;;;19.38;14.82;;;3.80;99.90;;;;;;5054823;28;20106;-47
2023/01/24 02:04:28;;;;;;;22.55;16.15;;;3.80;99.90;;;;;;5056275;28;20048;-48
2023/01/24 02:06:54;;;;;;;16.48;13.93;;;3.80;99.90;;;;;;5054383;28;20095;-53
2023/01/24 02:09:21;;;;;;;15.95;14.07;;;3.80;99.90;;;;;;5054655;28;20045;-52
2023/01/24 02:11:48;;;;;;;17.75;14.35;;;3.80;99.90;;;;;;5056159;28;20040;-49
2023/01/24 02:17:00;;;;;;;17.45;14.30;;;3.80;99.90;;;;;;5054889;28;20080;-52
2023/01/24 02:19:27;;;;;;;16.80;14.07;;;3.90;99.90;;;;;;5056043;28;20072;-52
2023/01/24 02:21:54;;;;;;;18.75;15.32;;;3.90;99.90;;;;;;5054719;28;20049;-50
2023/01/24 02:24:21;;;;;;;17.33;13.75;;;3.90;99.90;;;;;;5055907;28;20040;-52
2023/01/24 02:26:47;;;;;;;17.02;13.82;;;3.90;99.90;;;;;;5055468;28;20087;-50
2023/01/24 02:29:14;;;;;;;19.30;14.30;;;4.00;99.90;;;;;;5055644;28;20033;-52
2023/01/24 02:31:41;;;;;;;18.00;13.85;;;3.90;99.90;;;;;;5054265;28;20033;-51
2023/01/24 02:34:08;;;;;;;20.35;14.50;;;4.00;99.90;;;;;;5055616;28;20036;-54
2023/01/24 02:36:35;;;;;;;20.92;13.90;;;4.00;99.90;;;;;;5053858;28;20072;-51
2023/01/24 02:39:02;;;;;;;16.27;13.98;;;4.00;99.90;;;;;;5053675;28;20383;-47
2023/01/24 02:41:29;;;;;;;20.52;14.65;;;4.00;99.90;;;;;;5054142;28;20061;-53
2023/01/24 02:43:56;;;;;;;18.60;14.25;;;4.00;99.90;;;;;;5053840;28;20061;-48
2023/01/24 02:46:23;;;;;;;18.58;14.95;;;4.00;99.90;;;;;;5054014;28;20106;-52
2023/01/24 02:48:50;;;;;;;18.40;14.30;;;4.00;99.90;;;;;;5053899;28;20049;-51
2023/01/24 02:54:02;;;;;;;17.90;14.82;;;4.10;99.90;;;;;;5053975;28;20049;-48
2023/01/24 02:59:19;;;;;;;16.08;13.82;;;4.10;99.90;;;;;;5025838;28;20087;-47
2023/01/24 03:01:47;;;;;;;16.83;14.10;;;4.10;99.90;;;;;;5054081;28;20041;-52
2023/01/24 03:04:15;;;;;;;18.40;14.70;;;4.10;99.90;;;;;;5054984;28;20064;-50
2023/01/24 03:06:42;;;;;;;17.08;14.50;;;4.10;99.90;;;;;;5053884;28;20102;-49
2023/01/24 03:09:18;;;;;;;15.10;13.50;;;4.10;99.90;;;;;;5055171;28;20041;-47
2023/01/24 03:11:48;;;;;;;17.42;14.27;;;4.10;99.90;;;;;;5053738;28;20570;-52
2023/01/24 03:36:31;;;;;;;19.15;13.50;;;4.20;99.90;;;;;;5053342;28;20124;-52
2023/01/24 03:41:45;;;;;;;17.30;13.70;;;4.20;99.90;;;;;;5054522;28;20052;-51
2023/01/24 03:44:12;;;;;;;17.60;13.82;;;4.20;99.90;;;;;;5052700;28;20036;-49
2023/01/24 03:46:39;;;;;;;15.65;13.20;;;4.20;99.90;;;;;;5053061;28;20045;-51
2023/01/24 03:49:09;;;;;;;18.30;15.43;;;4.20;99.90;;;;;;5051900;28;20072;-54
2023/01/24 03:54:23;;;;;;;17.75;15.30;;;4.20;99.90;;;;;;5052524;28;20065;-53
2023/01/24 03:56:56;;;;;;;16.27;14.32;;;4.20;99.90;;;;;;5053058;28;20069;-47
2023/01/24 03:59:24;;;;;;;16.85;15.05;;;4.20;99.90;;;;;;5052686;28;20065;-50
2023/01/24 04:01:51;;;;;;;19.10;14.20;;;4.20;99.90;;;;;;5053074;28;20044;-50
2023/01/24 04:04:23;;;;;;;21.17;15.80;;;4.20;99.90;;;;;;5052974;28;20079;-52
2023/01/24 04:06:49;;;;;;;19.63;15.07;;;4.20;99.90;;;;;;5052345;28;20066;-52
2023/01/24 04:09:16;;;;;;;20.40;15.82;;;4.20;99.90;;;;;;5053643;28;20039;-55
2023/01/24 04:11:43;;;;;;;17.70;14.82;;;4.20;99.90;;;;;;5052432;28;20040;-54
2023/01/24 04:14:20;;;;;;;18.35;15.23;;;4.20;99.90;;;;;;5052522;28;20103;-50
2023/01/24 04:17:03;;;;;;;20.52;14.77;;;4.20;99.90;;;;;;5052301;28;20052;-53
2023/01/24 04:19:39;;;;;;;19.50;15.80;;;4.10;99.90;;;;;;5052146;28;20435;-53
2023/01/24 04:22:06;;;;;;;20.33;15.80;;;4.20;99.90;;;;;;5052282;28;20049;-49
2023/01/24 04:24:36;;;;;;;20.20;16.48;;;4.10;99.90;;;;;;5051997;28;20511;-50
2023/01/24 04:27:03;;;;;;;19.33;15.73;;;4.10;99.90;;;;;;5052288;28;20107;-48
2023/01/24 04:29:43;;;;;;;19.75;16.40;;;4.10;99.90;;;;;;5052284;28;20060;-49
2023/01/24 04:32:10;;;;;;;20.73;15.93;;;4.10;99.90;;;;;;5052351;28;20128;-51
2023/01/24 04:34:40;;;;;;;22.75;16.08;;;4.10;99.90;;;;;;5053450;28;20056;-50
2023/01/24 04:37:16;;;;;;;21.42;16.58;;;4.20;99.90;;;;;;5052025;28;20526;-51
2023/01/24 04:39:44;;;;;;;19.67;16.05;;;4.10;99.90;;;;;;5052468;28;20079;-50
2023/01/24 04:42:14;;;;;;;20.08;17.25;;;4.20;99.90;;;;;;5053779;28;20056;-49
2023/01/24 04:44:42;;;;;;;21.25;16.88;;;4.20;99.90;;;;;;5052490;28;20075;-53
2023/01/24 04:47:11;;;;;;;22.65;16.70;;;4.20;99.90;;;;;;5052345;28;20040;-46
2023/01/24 04:49:38;;;;;;;22.95;17.33;;;4.20;99.90;;;;;;5052354;28;20052;-49
2023/01/24 04:52:08;;;;;;;20.02;16.85;;;4.20;99.90;;;;;;5052492;28;20044;-54
2023/01/24 04:54:47;;;;;;;21.33;17.25;;;4.20;99.90;;;;;;5052087;28;20055;-50
2023/01/24 04:57:14;;;;;;;22.75;16.58;;;4.20;99.90;;;;;;5052022;28;20052;-49
2023/01/24 04:59:42;;;;;;;20.92;16.63;;;4.20;99.90;;;;;;5052028;28;20388;-48
2023/01/24 05:02:10;;;;;;;21.92;17.05;;;4.20;99.90;;;;;;5055738;28;20128;-54
2023/01/24 05:04:42;;;;;;;21.75;17.50;;;4.20;99.90;;;;;;5056001;28;20045;-51
2023/01/24 05:07:09;;;;;;;21.88;18.67;;;4.20;99.90;;;;;;5055714;28;20063;-48
2023/01/24 05:09:37;;;;;;;20.58;17.13;;;4.20;99.90;;;;;;5055618;28;20071;-51
2023/01/24 05:12:07;;;;;;;21.23;17.73;;;4.20;99.90;;;;;;5056068;28;20045;-46
2023/01/24 05:14:34;;;;;;;21.95;17.83;;;4.20;99.90;;;;;;5055752;28;20477;-50
2023/01/24 05:17:02;;;;;;;22.92;19.02;;;4.20;99.90;;;;;;5055734;28;20045;-50
2023/01/24 05:19:31;;;;;;;23.48;18.65;;;4.20;99.90;;;;;;5055938;28;20468;-51
2023/01/24 05:21:58;;;;;;;21.35;18.08;;;4.20;99.90;;;;;;5056135;28;20051;-51
2023/01/24 05:24:28;;;;;;;23.13;17.88;;;4.20;99.90;;;;;;5055344;28;20048;-51
2023/01/24 05:26:55;;;;;;;21.30;17.55;;;4.30;99.90;;;;;;5055351;28;20065;-47
2023/01/24 05:29:25;;;;;;;20.70;18.35;;;4.20;99.90;;;;;;5055542;28;20060;-51
2023/01/24 05:31:53;;;;;;;24.63;19.02;;;4.20;99.90;;;;;;5055827;28;20074;-48
2023/01/24 05:34:21;;;;;;;20.33;17.52;;;4.20;99.90;;;;;;5055181;28;20056;-51
2023/01/24 05:36:47;;;;;;;22.50;18.88;;;4.20;99.90;;;;;;5055123;28;20396;-53
2023/01/24 05:39:15;;;;;;;25.45;18.90;;;4.20;99.90;;;;;;5055119;28;20041;-50
2023/01/24 05:41:43;;;;;;;23.13;18.67;;;4.20;99.90;;;;;;5055226;28;20041;-47
2023/01/24 05:44:12;;;;;;;25.40;18.50;;;4.20;99.90;;;;;;5055187;28;20037;-50
2023/01/24 05:46:41;;;;;;;21.02;17.52;;;4.20;99.90;;;;;;5055364;28;20488;-53
2023/01/24 05:49:13;;;;;;;24.13;18.92;;;4.20;99.90;;;;;;5055298;28;20049;-53
2023/01/24 05:51:41;;;;;;;24.15;19.55;;;4.20;99.90;;;;;;5055090;28;20053;-48
2023/01/24 05:54:10;;;;;;;22.98;19.17;;;4.20;99.90;;;;;;5055451;28;20040;-47
2023/01/24 05:56:53;;;;;;;19.83;16.95;;;4.20;99.90;;;;;;5055109;28;20049;-50
2023/01/24 05:59:20;;;;;;;23.38;18.33;;;4.20;99.90;;;;;;5054946;28;20136;-48
2023/01/24 06:01:47;;;;;;;23.52;18.73;;;4.20;99.90;;;;;;5054778;28;20048;-50
2023/01/24 06:04:14;;;;;;;22.70;19.02;;;4.20;99.90;;;;;;5055036;28;20110;-51
2023/01/24 06:06:40;;;;;;;22.33;18.15;;;4.20;99.90;;;;;;5056208;28;20040;-52
2023/01/24 06:09:08;;;;;;;26.42;17.88;;;4.20;99.90;;;;;;5055102;28;20056;-47
2023/01/24 06:11:35;;;;;;;20.67;17.50;;;4.20;99.90;;;;;;5054360;28;20057;-48
2023/01/24 06:14:18;;;;;;;22.00;17.85;;;4.20;99.90;;;;;;5054755;28;20522;-51
2023/01/24 06:16:46;;;;;;;20.42;16.80;;;4.20;99.90;;;;;;5054639;28;20075;-49
2023/01/24 06:19:14;;;;;;;23.60;18.55;;;4.20;99.90;;;;;;5054594;28;20048;-48
2023/01/24 06:21:41;;;;;;;21.73;18.05;;;4.20;99.90;;;;;;5054656;28;20053;-49
2023/01/24 06:24:09;;;;;;;22.67;18.75;;;4.20;99.90;;;;;;5054490;28;20045;-54
2023/01/24 06:26:52;;;;;;;24.20;18.35;;;4.20;99.90;;;;;;5054495;28;20041;-48
2023/01/24 06:29:19;;;;;;;22.05;18.73;;;4.30;99.90;;;;;;5056047;28;20071;-50
2023/01/24 06:31:45;;;;;;;21.83;18.10;;;4.20;99.90;;;;;;5055956;28;20040;-50
2023/01/24 06:34:12;;;;;;;23.50;18.58;;;4.20;99.90;;;;;;5054685;28;20059;-44
2023/01/24 06:36:39;;;;;;;25.33;20.02;;;4.20;99.90;;;;;;5055712;28;20037;-51
2023/01/24 06:39:05;;;;;;;22.63;19.40;;;4.20;99.90;;;;;;5055412;28;20063;-46
2023/01/24 06:41:32;;;;;;;24.73;20.00;;;4.20;99.90;;;;;;5055720;28;20110;-49
2023/01/24 06:43:59;;;;;;;20.88;18.63;;;4.20;99.90;;;;;;5054981;28;20439;-47
2023/01/24 06:46:25;;;;;;;20.88;16.98;;;4.30;99.90;;;;;;5055295;28;20055;-46
2023/01/24 06:48:52;;;;;;;21.63;17.25;;;4.30;99.90;;;;;;5053893;28;20041;-50
2023/01/24 06:51:19;;;;;;;21.48;17.60;;;4.30;99.90;;;;;;5055149;28;20041;-48
2023/01/24 06:53:46;;;;;;;20.20;17.52;;;4.20;99.90;;;;;;5054935;28;20084;-49
2023/01/24 06:56:12;;;;;;;21.23;17.35;;;4.20;99.90;;;;;;5055259;28;20135;-47
2023/01/24 06:58:39;;;;;;;19.70;17.02;;;4.20;99.90;;;;;;5055126;28;20069;-51
2023/01/24 07:01:06;;;;;;;19.80;17.70;;;4.20;99.90;;;;;;5055184;28;20041;-51
2023/01/24 07:03:33;;;;;;;20.58;16.83;;;4.20;99.90;;;;;;5055337;28;20542;-50
2023/01/24 07:06:00;;;;;;;19.17;16.65;;;4.20;99.90;;;;;;5054730;28;20063;-52
2023/01/24 07:08:26;;;;;;;18.85;14.35;;;4.20;99.90;;;;;;5054616;28;20068;-52
2023/01/24 07:10:53;;;;;;;18.83;14.95;;;4.30;99.90;;;;;;5054505;28;20103;-49
2023/01/24 07:13:20;;;;;;;20.58;15.85;;;4.20;99.90;;;;;;5053801;28;20464;-51
2023/01/24 07:15:47;;;;;;;18.10;13.48;;;4.20;99.90;;;;;;5054461;28;20077;-50
2023/01/24 07:18:13;;;;;;;18.00;13.82;;;4.20;99.90;;;;;;5054657;28;20057;-52
2023/01/24 07:20:40;;;;;;;12.73;11.38;;;4.20;99.90;;;;;;5053155;28;20041;-49
2023/01/24 07:23:07;;;;;;;14.13;12.20;;;4.20;99.90;;;;;;5054607;28;20041;-54
2023/01/24 07:25:36;;;;;;;13.68;11.55;;;4.20;99.90;;;;;;5054136;28;20041;-52
2023/01/24 07:28:05;;;;;;;13.25;11.32;;;4.20;99.90;;;;;;5054260;28;20111;-54
2023/01/24 07:30:32;;;;;;;14.70;12.13;;;4.20;99.90;;;;;;5054666;28;20094;-54
2023/01/24 07:32:58;;;;;;;13.65;10.82;;;4.20;99.90;;;;;;5054177;28;20033;-55
2023/01/24 07:35:25;;;;;;;13.30;10.18;;;4.20;99.90;;;;;;5053914;28;20128;-55
2023/01/24 07:37:52;;;;;;;12.55;10.13;;;4.20;99.90;;;;;;5053782;28;20480;-47
2023/01/24 07:40:19;;;;;;;11.50;10.23;;;4.20;99.90;;;;;;5053770;28;20411;-47
2023/01/24 07:42:45;;;;;;;11.32;9.50;;;4.20;99.90;;;;;;5053515;28;20590;-50
2023/01/24 07:45:12;;;;;;;9.85;8.63;;;4.20;99.90;;;;;;5053569;28;20045;-48
2023/01/24 07:47:39;;;;;;;10.68;9.50;;;4.20;99.90;;;;;;5053532;28;20041;-51
2023/01/24 07:50:06;;;;;;;11.13;9.35;;;4.20;99.90;;;;;;5053752;28;20480;-48
2023/01/24 07:52:32;;;;;;;14.25;10.38;;;4.20;99.90;;;;;;5053684;28;20506;-51
2023/01/24 07:54:59;;;;;;;11.80;10.60;;;4.20;99.90;;;;;;5053946;28;20427;-45
2023/01/24 07:57:26;;;;;;;13.00;10.88;;;4.20;99.90;;;;;;5053386;28;20037;-48
2023/01/24 07:59:53;;;;;;;11.10;9.18;;;4.20;99.90;;;;;;5053584;28;20071;-48
2023/01/24 08:02:19;;;;;;;11.23;9.05;;;4.20;99.90;;;;;;5053748;28;20048;-49
2023/01/24 08:04:46;;;;;;;10.55;8.82;;;4.20;99.90;;;;;;5052377;28;20372;-47
2023/01/24 08:07:20;;;;;;;12.05;9.15;;;4.20;99.90;;;;;;5053578;28;20045;-46
2023/01/24 08:09:47;;;;;;;10.10;8.35;;;4.20;99.90;;;;;;5054005;28;20041;-49
2023/01/24 08:12:13;;;;;;;9.77;7.93;;;4.10;99.90;;;;;;5053472;28;20467;-52
2023/01/24 08:14:40;;;;;;;11.38;9.23;;;4.10;99.90;;;;;;5053434;28;20052;-50
2023/01/24 08:17:07;;;;;;;10.30;9.20;;;4.10;99.90;;;;;;5053397;28;20049;-48
2023/01/24 08:19:35;;;;;;;9.90;8.10;;;4.10;99.90;;;;;;5053704;28;20055;-47
2023/01/24 08:22:22;;;;;;;9.30;7.85;;;4.10;99.90;;;;;;5053785;28;20037;-47
2023/01/24 08:24:48;;;;;;;11.88;8.45;;;4.10;99.90;;;;;;5053608;28;20460;-51
2023/01/24 08:27:15;;;;;;;10.18;8.93;;;4.10;99.90;;;;;;5053111;28;20045;-46
2023/01/24 08:29:42;;;;;;;11.40;9.00;;;4.10;99.90;;;;;;5052001;28;20555;-53
2023/01/24 08:32:08;;;;;;;10.57;8.48;;;4.10;99.90;;;;;;5052054;28;20048;-49
2023/01/24 08:34:35;;;;;;;11.20;9.43;;;4.10;99.90;;;;;;5051771;28;20052;-47
2023/01/24 08:37:02;;;;;;;12.45;9.60;;;4.10;99.90;;;;;;5051475;28;20515;-47
2023/01/24 08:39:29;;;;;;;11.93;8.65;;;4.20;99.90;;;;;;5051964;28;20072;-50
2023/01/24 08:41:55;;;;;;;11.05;8.25;;;4.10;99.90;;;;;;5052044;28;20049;-47
2023/01/24 08:44:22;;;;;;;10.38;8.20;;;4.10;99.90;;;;;;5052606;28;20044;-48
2023/01/24 08:46:49;;;;;;;9.57;8.15;;;4.10;99.90;;;;;;5053501;28;20037;-47
2023/01/24 08:49:16;;;;;;;9.18;7.50;;;4.10;99.90;;;;;;5053316;28;20465;-49
2023/01/24 08:51:43;;;;;;;9.88;8.43;;;4.10;99.90;;;;;;5052194;28;20045;-46
2023/01/24 08:54:09;;;;;;;10.55;8.85;;;4.20;99.90;;;;;;5052774;28;20528;-49
2023/01/24 08:56:36;;;;;;;9.15;7.78;;;4.20;99.90;;;;;;5066615;28;20102;-48
2023/01/24 08:59:03;;;;;;;9.57;7.80;;;4.20;99.90;;;;;;5072800;28;20094;-49
2023/01/24 09:01:31;;;;;;;9.95;7.72;;;4.10;99.90;;;;;;5072746;28;20041;-49
2023/01/24 09:03:59;;;;;;;9.77;8.20;;;4.20;99.90;;;;;;5072745;28;20044;-50
2023/01/24 09:06:25;;;;;;;8.68;7.78;;;4.10;99.90;;;;;;5060851;28;20048;-49
2023/01/24 09:08:53;;;;;;;9.05;7.88;;;4.20;99.90;;;;;;5053327;28;20033;-50
2023/01/24 09:11:20;;;;;;;11.52;8.60;;;4.20;99.90;;;;;;5053175;28;20044;-52
2023/01/24 09:13:46;;;;;;;11.20;8.88;;;4.20;99.90;;;;;;5053661;28;20050;-51
2023/01/24 09:16:13;;;;;;;12.57;9.27;;;4.30;99.90;;;;;;5051024;28;20069;-49
2023/01/24 09:18:40;;;;;;;12.98;8.82;;;4.30;99.90;;;;;;5051734;28;20045;-46
2023/01/24 09:21:07;;;;;;;9.90;8.15;;;4.30;99.90;;;;;;5046918;28;20040;-48
2023/01/24 09:23:34;;;;;;;11.23;8.52;;;4.20;99.90;;;;;;5046853;28;20400;-50
2023/01/24 09:26:00;;;;;;;11.40;7.50;;;4.20;99.90;;;;;;5052910;28;20134;-52
2023/01/24 09:28:27;;;;;;;8.93;7.20;;;4.20;99.90;;;;;;5072662;28;20040;-50
2023/01/24 09:30:54;;;;;;;8.95;7.60;;;4.20;99.90;;;;;;5072051;28;20095;-52
2023/01/24 09:33:21;;;;;;;9.02;8.10;;;4.30;99.90;;;;;;5070747;28;20124;-51
2023/01/24 09:35:48;;;;;;;9.20;8.23;;;4.30;99.90;;;;;;5072005;28;20448;-50
2023/01/24 09:38:15;;;;;;;9.63;7.65;;;4.30;99.90;;;;;;5072149;28;20471;-48
2023/01/24 09:40:42;;;;;;;10.65;7.82;;;4.30;99.90;;;;;;5070923;28;20044;-49
2023/01/24 09:43:09;;;;;;;11.32;8.43;;;4.30;99.90;;;;;;5070949;28;20053;-47
2023/01/24 09:45:36;;;;;;;10.45;9.35;;;4.30;99.90;;;;;;5069685;28;20049;-49
2023/01/24 09:48:02;;;;;;;10.85;8.15;;;4.30;99.90;;;;;;5052250;28;20051;-52
2023/01/24 09:50:29;;;;;;;10.35;8.32;;;4.30;99.90;;;;;;5054648;28;20041;-48
2023/01/24 09:52:56;;;;;;;14.57;8.93;;;4.30;99.90;;;;;;5062729;28;20048;-51
2023/01/24 09:55:23;;;;;;;10.40;8.18;;;4.40;99.90;;;;;;5058106;28;20515;-50
2023/01/24 09:57:51;;;;;;;11.15;8.40;;;4.40;99.90;;;;;;5056086;28;20037;-50
2023/01/24 10:00:17;;;;;;;9.80;8.63;;;4.40;99.90;;;;;;5052579;28;20401;-50
2023/01/24 10:02:44;;;;;;;8.25;7.40;;;4.40;99.90;;;;;;5055494;28;20049;-50
2023/01/24 10:05:11;;;;;;;14.02;9.68;;;4.40;99.90;;;;;;5056095;28;20041;-52
2023/01/24 10:07:38;;;;;;;11.75;8.82;;;4.50;99.90;;;;;;5055600;28;20045;-51
2023/01/24 10:10:04;;;;;;;11.82;9.45;;;4.60;99.90;;;;;;5055576;28;20037;-49
2023/01/24 10:12:31;;;;;;;10.07;7.63;;;4.50;99.90;;;;;;5055994;28;20407;-48
2023/01/24 10:14:58;;;;;;;10.05;7.30;;;4.50;99.90;;;;;;5066200;28;20052;-47
2023/01/24 10:17:25;;;;;;;9.23;7.88;;;4.40;99.90;;;;;;5074789;28;20040;-48
2023/01/24 10:19:51;;;;;;;8.82;7.07;;;4.50;99.90;;;;;;5075094;28;20045;-53
2023/01/24 10:22:18;;;;;;;8.85;7.35;;;4.50;99.90;;;;;;5075005;28;20086;-49
2023/01/24 10:24:45;;;;;;;10.88;7.95;;;4.50;99.90;;;;;;5074880;28;20050;-50
2023/01/24 10:27:12;;;;;;;8.95;7.70;;;4.50;99.90;;;;;;5067476;28;20128;-52
2023/01/24 10:29:39;;;;;;;12.18;7.72;;;4.60;99.90;;;;;;5055630;28;20045;-47
2023/01/24 10:32:06;;;;;;;10.80;7.65;;;4.50;99.90;;;;;;5055760;28;20087;-46
2023/01/24 10:34:32;;;;;;;8.85;7.88;;;4.50;99.90;;;;;;5054880;28;20041;-49
2023/01/24 10:36:59;;;;;;;8.70;7.30;;;4.50;99.90;;;;;;5055536;28;20037;-49
2023/01/24 10:39:27;;;;;;;11.00;8.13;;;4.50;99.90;;;;;;5055310;28;20080;-51
2023/01/24 10:41:54;;;;;;;9.63;8.05;;;4.50;99.90;;;;;;5057930;28;20058;-48
2023/01/24 10:44:20;;;;;;;9.82;8.15;;;4.50;99.90;;;;;;5052204;28;20044;-46
2023/01/24 10:46:47;;;;;;;9.93;7.38;;;4.60;99.90;;;;;;5053982;28;20496;-49
2023/01/24 10:49:14;;;;;;;9.88;7.32;;;4.60;99.90;;;;;;5055148;28;20396;-50
2023/01/24 10:51:40;;;;;;;11.07;8.13;;;4.60;99.90;;;;;;5055243;28;20079;-47
2023/01/24 10:54:07;;;;;;;11.98;7.78;;;4.60;99.90;;;;;;5054648;28;20396;-48
2023/01/24 10:56:34;;;;;;;9.57;7.05;;;4.60;99.90;;;;;;5055184;28;20052;-52
2023/01/24 10:59:01;;;;;;;8.25;7.38;;;4.60;99.90;;;;;;5052816;28;20045;-51
2023/01/24 11:01:27;;;;;;;11.20;6.95;;;4.60;99.90;;;;;;5054998;28;20037;-53
2023/01/24 11:03:54;;;;;;;10.60;7.57;;;4.70;99.90;;;;;;5055199;28;20431;-48
2023/01/24 11:06:21;;;;;;;9.50;7.53;;;4.70;99.90;;;;;;5054232;28;20045;-47
2023/01/24 11:08:48;;;;;;;12.40;7.13;;;4.70;99.90;;;;;;5054973;28;20078;-48
2023/01/24 11:11:15;;;;;;;7.82;6.00;;;4.70;99.90;;;;;;5055073;28;20045;-47
2023/01/24 11:13:41;;;;;;;8.13;6.60;;;4.70;99.90;;;;;;5054106;28;20041;-49
2023/01/24 11:16:08;;;;;;;9.75;7.20;;;4.80;99.90;;;;;;5054539;28;20053;-52
2023/01/24 11:18:36;;;;;;;10.70;6.88;;;4.80;99.90;;;;;;5054237;28;20455;-50
2023/01/24 11:21:03;;;;;;;8.70;6.50;;;4.90;99.90;;;;;;5054730;28;20053;-51
2023/01/24 11:23:30;;;;;;;9.82;7.13;;;4.90;99.90;;;;;;5054579;28;20118;-49
2023/01/24 11:25:57;;;;;;;9.95;7.18;;;4.90;99.90;;;;;;5054403;28;20064;-48
2023/01/24 11:28:24;;;;;;;7.18;6.47;;;4.90;99.90;;;;;;5054573;28;20420;-47
2023/01/24 11:30:51;;;;;;;9.48;7.35;;;5.00;99.90;;;;;;5052979;28;20087;-48
2023/01/24 11:33:17;;;;;;;9.02;6.70;;;4.90;99.90;;;;;;5054547;28;20040;-49
2023/01/24 11:35:44;;;;;;;9.13;5.95;;;5.00;99.90;;;;;;5054189;28;20048;-50
2023/01/24 11:38:11;;;;;;;9.70;6.78;;;4.90;99.90;;;;;;5054298;28;20480;-48
2023/01/24 11:40:39;;;;;;;8.68;6.57;;;5.00;99.90;;;;;;5054158;28;20044;-51
2023/01/24 11:43:06;;;;;;;8.43;7.07;;;4.90;99.90;;;;;;5052375;28;20046;-48
2023/01/24 11:45:33;;;;;;;7.45;6.70;;;5.00;99.90;;;;;;5052826;28;20049;-49
2023/01/24 11:48:00;;;;;;;10.38;7.22;;;5.00;99.90;;;;;;5045088;28;20116;-48
2023/01/24 11:50:26;;;;;;;8.00;6.82;;;5.00;99.90;;;;;;5042961;28;20049;-46
2023/01/24 11:52:53;;;;;;;8.50;7.47;;;5.10;99.90;;;;;;5052351;28;20068;-46
2023/01/24 11:55:20;;;;;;;13.38;8.27;;;5.10;99.90;;;;;;5051487;28;20443;-49
2023/01/24 11:57:47;;;;;;;10.15;7.45;;;5.20;99.90;;;;;;5065432;28;20041;-53
2023/01/24 12:00:14;;;;;;;9.43;7.95;;;5.30;99.90;;;;;;5059546;28;20048;-50
2023/01/24 12:02:41;;;;;;;10.38;8.05;;;5.30;99.90;;;;;;5067752;28;20048;-51
2023/01/24 12:05:08;;;;;;;10.18;7.97;;;5.30;99.90;;;;;;5072395;28;20090;-53
2023/01/24 12:07:34;;;;;;;9.50;8.40;;;5.20;99.90;;;;;;5072369;28;20506;-47
2023/01/24 12:10:01;;;;;;;12.40;8.32;;;5.20;99.90;;;;;;5046086;28;20045;-48
2023/01/24 12:12:28;;;;;;;8.77;7.85;;;5.20;99.90;;;;;;5046761;28;20041;-45
2023/01/24 12:14:55;;;;;;;9.23;7.60;;;5.30;99.90;;;;;;5046611;28;20126;-46
2023/01/24 12:17:22;;;;;;;13.88;9.30;;;5.40;99.90;;;;;;5046530;28;20044;-50
2023/01/24 12:19:52;;;;;;;11.60;8.05;;;5.40;99.90;;;;;;5046017;28;20098;-51
2023/01/24 12:22:19;;;;;;;9.15;8.15;;;5.40;99.90;;;;;;5072488;28;20399;-54
2023/01/24 12:24:46;;;;;;;9.68;7.97;;;5.40;99.90;;;;;;5064228;28;20037;-51
2023/01/24 12:27:13;;;;;;;9.90;7.78;;;5.40;99.90;;;;;;5046556;28;20037;-47
2023/01/24 12:29:39;;;;;;;11.20;8.02;;;5.40;99.90;;;;;;5046750;28;20040;-51
2023/01/24 12:32:06;;;;;;;11.20;8.65;;;5.40;99.90;;;;;;5046533;28;20195;-53
2023/01/24 12:34:33;;;;;;;9.63;8.57;;;5.40;99.90;;;;;;5046622;28;20065;-48
2023/01/24 12:36:59;;;;;;;12.10;8.95;;;5.40;99.90;;;;;;5087799;28;20140;-49
2023/01/24 12:39:26;;;;;;;9.50;8.50;;;5.40;99.90;;;;;;5057946;28;20044;-53
2023/01/24 12:41:53;;;;;;;11.30;8.52;;;5.40;99.90;;;;;;5046086;28;20107;-49
2023/01/24 12:44:20;;;;;;;12.60;9.07;;;5.50;99.90;;;;;;5051298;28;20144;-50
2023/01/24 12:46:46;;;;;;;41.47;32.05;;;5.50;99.90;;;;;;5052790;28;20508;-50
2023/01/24 12:49:13;;;;;;;12.75;9.80;;;5.50;99.90;;;;;;5052545;28;20041;-50
2023/01/24 12:51:42;;;;;;;10.45;9.25;;;5.50;99.90;;;;;;5053113;28;20043;-53
2023/01/24 12:54:09;;;;;;;13.25;9.32;;;5.40;99.90;;;;;;5051730;28;20075;-47
2023/01/24 12:56:35;;;;;;;12.43;9.70;;;5.40;99.90;;;;;;5052215;28;20095;-49
2023/01/24 12:59:02;;;;;;;10.77;8.55;;;5.50;99.90;;;;;;5052212;28;20041;-49
2023/01/24 13:01:30;;;;;;;11.95;9.63;;;5.50;99.90;;;;;;5052168;28;20106;-52
2023/01/24 13:03:57;;;;;;;12.13;8.95;;;5.60;99.90;;;;;;5052467;28;20053;-49
2023/01/24 13:06:25;;;;;;;12.35;9.38;;;5.60;99.90;;;;;;5053521;28;20369;-48
2023/01/24 13:08:51;;;;;;;9.40;8.25;;;5.60;99.90;;;;;;5053056;28;20452;-53
2023/01/24 13:11:18;;;;;;;9.75;8.60;;;5.60;99.90;;;;;;5051920;28;20511;-47
2023/01/24 13:13:45;;;;;;;10.68;7.88;;;5.60;99.90;;;;;;5053184;28;20041;-49
2023/01/24 13:16:12;;;;;;;12.02;8.57;;;5.70;99.90;;;;;;5050915;28;20045;-47
2023/01/24 13:18:38;;;;;;;11.38;8.82;;;5.70;99.90;;;;;;5053113;28;20340;-51
2023/01/24 13:21:06;;;;;;;10.02;8.32;;;5.70;99.90;;;;;;5051403;28;20044;-49